createdAt,value
2017-08-29T00:00:29.511Z,20.95
2017-08-29T00:01:29.560Z,20.97
2017-08-29T00:02:29.483Z,20.89
2017-08-29T00:03:29.157Z,20.89
2017-08-29T00:04:29.125Z,20.94
2017-08-29T00:05:29.122Z,20.89
2017-08-29T00:06:29.504Z,20.88
2017-08-29T00:07:29.092Z,20.87
2017-08-29T00:08:28.765Z,20.82
2017-08-29T00:09:29.072Z,20.84
2017-08-29T00:10:29.054Z,20.82
2017-08-29T00:11:28.725Z,20.79
2017-08-29T00:12:29.033Z,20.79
2017-08-29T00:13:29.015Z,20.7
2017-08-29T00:14:29.312Z,20.74
2017-08-29T00:15:28.993Z,20.7
2017-08-29T00:16:29.274Z,20.7
2017-08-29T00:17:29.268Z,20.66
2017-08-29T00:18:29.235Z,20.74
2017-08-29T00:19:28.920Z,20.69
2017-08-29T00:20:29.223Z,20.74
2017-08-29T00:21:29.208Z,20.73
2017-08-29T00:22:29.201Z,20.67
2017-08-29T00:23:28.875Z,20.74
2017-08-29T00:24:29.164Z,20.72
2017-08-29T00:25:28.844Z,20.69
2017-08-29T00:26:29.153Z,20.69
2017-08-29T00:27:28.805Z,20.64
2017-08-29T00:28:29.115Z,20.7
2017-08-29T00:29:29.107Z,20.63
2017-08-29T00:30:28.778Z,20.58
2017-08-29T00:31:28.755Z,20.62
2017-08-29T00:32:28.744Z,20.6
2017-08-29T00:33:29.043Z,20.62
2017-08-29T00:34:28.727Z,20.48
2017-08-29T00:35:28.718Z,20.54
2017-08-29T00:36:29.001Z,20.52
2017-08-29T00:37:28.681Z,20.48
2017-08-29T00:38:28.675Z,20.54
2017-08-29T00:39:28.990Z,20.55
2017-08-29T00:40:28.933Z,20.49
2017-08-29T00:41:28.933Z,20.57
2017-08-29T00:42:28.614Z,20.51
2017-08-29T00:43:28.601Z,20.49
2017-08-29T00:44:28.588Z,20.4
2017-08-29T00:45:28.897Z,20.49
2017-08-29T00:46:28.856Z,20.41
2017-08-29T00:47:28.853Z,20.4
2017-08-29T00:48:28.871Z,20.41
2017-08-29T00:49:28.524Z,20.38
2017-08-29T00:50:28.805Z,20.26
2017-08-29T00:51:28.479Z,20.16
2017-08-29T00:52:28.784Z,20.26
2017-08-29T00:53:28.783Z,20.23
2017-08-29T00:54:28.754Z,20.32
2017-08-29T00:55:28.102Z,20.33
2017-08-29T00:56:28.397Z,20.31
2017-08-29T00:57:28.402Z,20.32
2017-08-29T00:58:28.376Z,20.2
2017-08-29T00:59:28.349Z,20.26
2017-08-29T01:00:28.357Z,20.26
2017-08-29T01:01:28.636Z,20.31
2017-08-29T01:02:28.047Z,20.31
2017-08-29T01:03:28.309Z,20.32
2017-08-29T01:04:28.289Z,20.23
2017-08-29T01:05:28.267Z,20.26
2017-08-29T01:06:28.259Z,20.17
2017-08-29T01:07:28.563Z,20.28
2017-08-29T01:08:28.549Z,20.2
2017-08-29T01:09:28.541Z,20.17
2017-08-29T01:10:28.427Z,20.18
2017-08-29T01:11:28.499Z,20.22
2017-08-29T01:12:28.178Z,20.18
2017-08-29T01:13:28.461Z,20.13
2017-08-29T01:14:28.471Z,20.2
2017-08-29T01:15:27.816Z,20.18
2017-08-29T01:16:28.419Z,20.11
2017-08-29T01:17:28.398Z,20.14
2017-08-29T01:18:28.428Z,20.14
2017-08-29T01:19:28.380Z,20.14
2017-08-29T01:20:28.358Z,20.18
2017-08-29T01:21:28.045Z,20.1
2017-08-29T01:22:28.339Z,20.16
2017-08-29T01:23:28.068Z,20.16
2017-08-29T01:24:28.300Z,20.07
2017-08-29T01:25:28.301Z,20.06
2017-08-29T01:26:27.980Z,20.1
2017-08-29T01:27:28.280Z,20.06
2017-08-29T01:28:28.259Z,20.07
2017-08-29T01:29:28.038Z,19.91
2017-08-29T01:30:28.048Z,19.8
2017-08-29T01:31:27.574Z,19.77
2017-08-29T01:32:27.578Z,19.78
2017-08-29T01:33:28.189Z,19.69
2017-08-29T01:34:28.177Z,19.66
2017-08-29T01:35:27.948Z,19.52
2017-08-29T01:36:27.819Z,19.58
2017-08-29T01:37:27.497Z,19.55
2017-08-29T01:38:27.858Z,19.51
2017-08-29T01:39:27.779Z,19.55
2017-08-29T01:40:28.077Z,19.52
2017-08-29T01:41:27.448Z,19.61
2017-08-29T01:42:27.746Z,19.55
2017-08-29T01:43:28.028Z,19.67
2017-08-29T01:44:28.080Z,19.71
2017-08-29T01:45:28.008Z,19.74
2017-08-29T01:46:27.998Z,19.81
2017-08-29T01:47:27.668Z,19.78
2017-08-29T01:48:27.676Z,19.85
2017-08-29T01:49:28.000Z,19.73
2017-08-29T01:50:27.310Z,19.76
2017-08-29T01:51:27.608Z,19.73
2017-08-29T01:52:27.998Z,19.8
2017-08-29T01:53:27.950Z,19.81
2017-08-29T01:54:27.569Z,19.81
2017-08-29T01:55:27.630Z,19.8
2017-08-29T01:56:27.849Z,19.78
2017-08-29T01:57:27.518Z,19.8
2017-08-29T01:58:27.509Z,19.76
2017-08-29T01:59:27.538Z,19.78
2017-08-29T02:00:27.478Z,19.8
2017-08-29T02:01:27.462Z,19.77
2017-08-29T02:02:27.817Z,19.83
2017-08-29T02:03:27.435Z,19.83
2017-08-29T02:04:27.415Z,19.8
2017-08-29T02:05:27.388Z,19.78
2017-08-29T02:06:27.699Z,19.86
2017-08-29T02:07:27.728Z,19.78
2017-08-29T02:08:27.049Z,19.81
2017-08-29T02:09:27.339Z,19.76
2017-08-29T02:10:27.635Z,19.78
2017-08-29T02:11:27.389Z,19.7
2017-08-29T02:12:27.697Z,19.74
2017-08-29T02:13:27.598Z,19.76
2017-08-29T02:14:27.269Z,19.71
2017-08-29T02:15:27.558Z,19.66
2017-08-29T02:16:26.925Z,19.58
2017-08-29T02:17:27.229Z,19.52
2017-08-29T02:18:27.528Z,19.41
2017-08-29T02:19:27.508Z,19.46
2017-08-29T02:20:27.490Z,19.4
2017-08-29T02:21:27.478Z,19.44
2017-08-29T02:22:27.136Z,19.44
2017-08-29T02:23:26.817Z,19.38
2017-08-29T02:24:26.809Z,19.41
2017-08-29T02:25:27.418Z,19.44
2017-08-29T02:26:27.090Z,19.4
2017-08-29T02:27:27.379Z,19.41
2017-08-29T02:28:27.360Z,19.55
2017-08-29T02:29:27.047Z,19.49
2017-08-29T02:30:27.335Z,19.36
2017-08-29T02:31:27.017Z,19.38
2017-08-29T02:32:26.682Z,19.4
2017-08-29T02:33:27.320Z,19.48
2017-08-29T02:34:26.969Z,19.4
2017-08-29T02:35:26.959Z,19.38
2017-08-29T02:36:27.250Z,19.46
2017-08-29T02:37:27.237Z,19.38
2017-08-29T02:38:26.600Z,19.38
2017-08-29T02:39:26.900Z,19.36
2017-08-29T02:40:27.188Z,19.33
2017-08-29T02:41:26.853Z,19.37
2017-08-29T02:42:27.148Z,19.38
2017-08-29T02:43:26.526Z,19.4
2017-08-29T02:44:26.823Z,19.23
2017-08-29T02:45:27.119Z,19.19
2017-08-29T02:46:26.798Z,19.31
2017-08-29T02:47:26.768Z,19.18
2017-08-29T02:48:26.451Z,19.22
2017-08-29T02:49:26.750Z,19.18
2017-08-29T02:50:26.729Z,19.25
2017-08-29T02:51:27.030Z,18.99
2017-08-29T02:52:26.700Z,19.07
2017-08-29T02:53:26.378Z,18.93
2017-08-29T02:54:26.977Z,18.96
2017-08-29T02:55:26.647Z,18.84
2017-08-29T02:56:26.972Z,18.85
2017-08-29T02:57:26.638Z,18.75
2017-08-29T02:58:26.606Z,18.65
2017-08-29T02:59:26.607Z,18.66
2017-08-29T03:00:26.574Z,18.56
2017-08-29T03:01:26.877Z,18.66
2017-08-29T03:02:26.866Z,18.62
2017-08-29T03:03:26.549Z,18.62
2017-08-29T03:04:26.827Z,18.69
2017-08-29T03:05:26.509Z,18.77
2017-08-29T03:06:26.797Z,18.75
2017-08-29T03:07:26.782Z,18.62
2017-08-29T03:08:26.759Z,18.48
2017-08-29T03:09:26.462Z,18.29
2017-08-29T03:10:26.429Z,18.41
2017-08-29T03:11:26.729Z,18.12
2017-08-29T03:12:26.710Z,18.1
2017-08-29T03:13:26.689Z,18.05
2017-08-29T03:14:26.361Z,17.98
2017-08-29T03:15:26.357Z,17.95
2017-08-29T03:16:26.640Z,17.96
2017-08-29T03:17:26.628Z,17.9
2017-08-29T03:18:26.603Z,17.95
2017-08-29T03:19:26.598Z,17.98
2017-08-29T03:20:26.577Z,18.01
2017-08-29T03:21:26.630Z,18.12
2017-08-29T03:22:26.549Z,18.12
2017-08-29T03:23:26.236Z,18.19
2017-08-29T03:24:26.518Z,18.26
2017-08-29T03:25:26.509Z,18.3
2017-08-29T03:26:26.487Z,18.41
2017-08-29T03:27:26.478Z,18.42
2017-08-29T03:28:26.459Z,18.33
2017-08-29T03:29:26.544Z,18.45
2017-08-29T03:30:26.509Z,18.48
2017-08-29T03:31:26.428Z,18.59
2017-08-29T03:32:26.091Z,18.47
2017-08-29T03:33:26.451Z,18.5
2017-08-29T03:34:26.373Z,18.65
2017-08-29T03:35:26.360Z,18.6
2017-08-29T03:36:26.419Z,18.56
2017-08-29T03:37:26.318Z,18.55
2017-08-29T03:38:26.309Z,18.66
2017-08-29T03:39:26.330Z,18.65
2017-08-29T03:40:26.279Z,18.59
2017-08-29T03:41:25.949Z,18.51
2017-08-29T03:42:26.259Z,18.37
2017-08-29T03:43:26.296Z,18.47
2017-08-29T03:44:26.258Z,18.58
2017-08-29T03:45:25.979Z,18.4
2017-08-29T03:46:26.253Z,18.5
2017-08-29T03:47:26.002Z,18.5
2017-08-29T03:48:26.259Z,18.48
2017-08-29T03:49:25.519Z,18.42
2017-08-29T03:50:26.339Z,18.45
2017-08-29T03:51:25.828Z,18.37
2017-08-29T03:52:25.468Z,18.38
2017-08-29T03:53:25.768Z,18.42
2017-08-29T03:54:26.089Z,18.37
2017-08-29T03:55:26.055Z,18.23
2017-08-29T03:56:25.768Z,18.19
2017-08-29T03:57:26.088Z,18.05
2017-08-29T03:58:26.005Z,18.05
2017-08-29T03:59:26.029Z,18.01
2017-08-29T04:00:25.969Z,17.95
2017-08-29T04:01:25.949Z,18.01
2017-08-29T04:02:25.930Z,17.77
2017-08-29T04:03:25.596Z,17.82
2017-08-29T04:04:25.899Z,17.85
2017-08-29T04:05:25.882Z,17.8
2017-08-29T04:06:25.557Z,17.75
2017-08-29T04:07:25.859Z,17.7
2017-08-29T04:08:25.518Z,17.52
2017-08-29T04:09:25.817Z,17.46
2017-08-29T04:10:25.169Z,17.31
2017-08-29T04:11:25.482Z,17.4
2017-08-29T04:12:25.149Z,17.4
2017-08-29T04:13:25.758Z,17.44
2017-08-29T04:14:25.436Z,17.55
2017-08-29T04:15:25.408Z,17.56
2017-08-29T04:16:25.399Z,17.52
2017-08-29T04:17:25.381Z,17.6
2017-08-29T04:18:25.681Z,17.68
2017-08-29T04:19:25.047Z,17.65
2017-08-29T04:20:25.639Z,17.49
2017-08-29T04:21:25.310Z,17.46
2017-08-29T04:22:25.618Z,17.44
2017-08-29T04:23:25.291Z,17.37
2017-08-29T04:24:25.260Z,17.46
2017-08-29T04:25:25.640Z,17.55
2017-08-29T04:26:25.538Z,17.37
2017-08-29T04:27:25.215Z,17.33
2017-08-29T04:28:25.519Z,17.34
2017-08-29T04:29:24.868Z,17.37
2017-08-29T04:30:25.479Z,17.36
2017-08-29T04:31:25.462Z,17.4
2017-08-29T04:32:25.158Z,17.4
2017-08-29T04:33:25.446Z,17.48
2017-08-29T04:34:25.419Z,17.48
2017-08-29T04:35:25.099Z,17.46
2017-08-29T04:36:25.099Z,17.49
2017-08-29T04:37:25.358Z,17.46
2017-08-29T04:38:25.350Z,17.49
2017-08-29T04:39:25.343Z,17.46
2017-08-29T04:40:25.314Z,17.56
2017-08-29T04:41:25.297Z,17.54
2017-08-29T04:42:24.663Z,17.56
2017-08-29T04:43:24.959Z,17.62
2017-08-29T04:44:24.949Z,17.55
2017-08-29T04:45:25.239Z,17.49
2017-08-29T04:46:24.912Z,17.54
2017-08-29T04:47:25.199Z,17.49
2017-08-29T04:48:25.186Z,17.54
2017-08-29T04:49:24.858Z,17.68
2017-08-29T04:50:25.159Z,17.75
2017-08-29T04:51:24.836Z,17.87
2017-08-29T04:52:25.120Z,17.95
2017-08-29T04:53:25.108Z,18
2017-08-29T04:54:25.109Z,18.02
2017-08-29T04:55:25.079Z,18.02
2017-08-29T04:56:25.068Z,18.04
2017-08-29T04:57:25.051Z,18.08
2017-08-29T04:58:25.028Z,18.14
2017-08-29T04:59:25.019Z,18.26
2017-08-29T05:00:24.680Z,18.37
2017-08-29T05:01:24.982Z,18.29
2017-08-29T05:02:24.646Z,18.27
2017-08-29T05:03:24.953Z,18.35
2017-08-29T05:04:24.619Z,18.37
2017-08-29T05:05:24.601Z,18.45
2017-08-29T05:06:24.319Z,18.41
2017-08-29T05:07:24.572Z,18.4
2017-08-29T05:08:24.609Z,18.41
2017-08-29T05:09:24.852Z,18.38
2017-08-29T05:10:24.618Z,18.4
2017-08-29T05:11:24.503Z,18.4
2017-08-29T05:12:24.499Z,18.41
2017-08-29T05:13:24.479Z,18.4
2017-08-29T05:14:24.234Z,18.5
2017-08-29T05:15:24.781Z,18.55
2017-08-29T05:16:24.190Z,18.58
2017-08-29T05:17:24.737Z,18.4
2017-08-29T05:18:24.199Z,18.4
2017-08-29T05:19:24.712Z,18.51
2017-08-29T05:20:24.369Z,18.51
2017-08-29T05:21:24.049Z,18.59
2017-08-29T05:22:24.080Z,18.59
2017-08-29T05:23:24.638Z,18.59
2017-08-29T05:24:24.310Z,18.52
2017-08-29T05:25:24.609Z,18.52
2017-08-29T05:26:24.314Z,18.5
2017-08-29T05:27:24.569Z,18.44
2017-08-29T05:28:24.561Z,18.29
2017-08-29T05:29:24.622Z,18.25
2017-08-29T05:30:24.260Z,18.2
2017-08-29T05:31:24.190Z,18.07
2017-08-29T05:32:24.253Z,17.95
2017-08-29T05:33:24.570Z,17.89
2017-08-29T05:34:24.467Z,17.9
2017-08-29T05:35:24.459Z,17.83
2017-08-29T05:36:24.443Z,17.78
2017-08-29T05:37:24.419Z,17.87
2017-08-29T05:38:24.533Z,17.86
2017-08-29T05:39:24.403Z,17.64
2017-08-29T05:40:24.392Z,17.62
2017-08-29T05:41:24.060Z,17.49
2017-08-29T05:42:24.347Z,17.62
2017-08-29T05:43:24.021Z,17.55
2017-08-29T05:44:24.887Z,17.67
2017-08-29T05:45:24.112Z,17.75
2017-08-29T05:46:24.015Z,17.9
2017-08-29T05:47:24.270Z,17.96
2017-08-29T05:48:24.289Z,17.85
2017-08-29T05:49:24.022Z,17.86
2017-08-29T05:50:24.225Z,17.95
2017-08-29T05:51:24.311Z,18.02
2017-08-29T05:52:24.508Z,18.1
2017-08-29T05:53:24.171Z,18.11
2017-08-29T05:54:24.171Z,18.19
2017-08-29T05:55:24.200Z,18.14
2017-08-29T05:56:23.499Z,18.4
2017-08-29T05:57:24.110Z,18.26
2017-08-29T05:58:24.155Z,18.29
2017-08-29T05:59:24.157Z,18.3
2017-08-29T06:00:23.436Z,18.33
2017-08-29T06:01:23.418Z,18.38
2017-08-29T06:02:24.035Z,18.3
2017-08-29T06:03:23.701Z,18.41
2017-08-29T06:04:24.091Z,18.51
2017-08-29T06:05:24.000Z,18.41
2017-08-29T06:06:24.075Z,18.56
2017-08-29T06:07:23.993Z,18.5
2017-08-29T06:08:23.305Z,18.5
2017-08-29T06:09:23.952Z,18.52
2017-08-29T06:10:23.942Z,18.47
2017-08-29T06:11:23.881Z,18.41
2017-08-29T06:12:23.894Z,18.48
2017-08-29T06:13:23.545Z,18.52
2017-08-29T06:14:23.833Z,18.56
2017-08-29T06:15:23.201Z,18.59
2017-08-29T06:16:23.865Z,18.56
2017-08-29T06:17:23.470Z,18.7
2017-08-29T06:18:23.775Z,18.69
2017-08-29T06:19:23.442Z,18.75
2017-08-29T06:20:23.749Z,18.7
2017-08-29T06:21:23.421Z,18.62
2017-08-29T06:22:23.401Z,18.85
2017-08-29T06:23:23.069Z,18.75
2017-08-29T06:24:23.367Z,18.78
2017-08-29T06:25:23.670Z,18.92
2017-08-29T06:26:23.774Z,18.84
2017-08-29T06:27:23.638Z,19.06
2017-08-29T06:28:23.679Z,19.15
2017-08-29T06:29:23.601Z,19.22
2017-08-29T06:30:23.605Z,18.95
2017-08-29T06:31:23.594Z,19
2017-08-29T06:32:23.572Z,19.16
2017-08-29T06:33:23.551Z,18.85
2017-08-29T06:34:23.613Z,18.85
2017-08-29T06:35:23.512Z,19.07
2017-08-29T06:36:23.503Z,19.21
2017-08-29T06:37:23.481Z,19.15
2017-08-29T06:38:23.481Z,19.22
2017-08-29T06:39:23.461Z,19.46
2017-08-29T06:40:23.143Z,19.58
2017-08-29T06:41:23.109Z,19.73
2017-08-29T06:42:23.098Z,19.74
2017-08-29T06:43:23.630Z,19.62
2017-08-29T06:44:23.073Z,19.33
2017-08-29T06:45:23.382Z,19.36
2017-08-29T06:46:23.386Z,19.31
2017-08-29T06:47:23.024Z,19.46
2017-08-29T06:48:23.009Z,19.7
2017-08-29T06:49:22.993Z,19.76
2017-08-29T06:50:22.995Z,19.83
2017-08-29T06:51:22.974Z,19.96
2017-08-29T06:52:22.964Z,20.11
2017-08-29T06:53:23.251Z,20.41
2017-08-29T06:54:22.922Z,21.02
2017-08-29T06:55:23.234Z,21.5
2017-08-29T06:56:22.901Z,22.18
2017-08-29T06:57:22.892Z,22.72
2017-08-29T06:58:23.201Z,23.1
2017-08-29T06:59:22.884Z,23.69
2017-08-29T07:00:23.086Z,23.66
2017-08-29T07:01:22.854Z,23.38
2017-08-29T07:02:23.145Z,23.36
2017-08-29T07:03:22.833Z,23.27
2017-08-29T07:04:22.815Z,23.62
2017-08-29T07:05:23.121Z,24.1
2017-08-29T07:06:23.107Z,23.95
2017-08-29T07:07:22.800Z,24.1
2017-08-29T07:08:23.091Z,24.44
2017-08-29T07:09:23.324Z,24.42
2017-08-29T07:10:22.769Z,24.8
2017-08-29T07:11:22.462Z,25.39
2017-08-29T07:12:22.753Z,25.95
2017-08-29T07:13:23.102Z,26.47
2017-08-29T07:14:23.051Z,26.75
2017-08-29T07:15:22.737Z,26.75
2017-08-29T07:16:22.725Z,26.27
2017-08-29T07:17:22.829Z,26.26
2017-08-29T07:18:23.031Z,26.29
2017-08-29T07:19:22.711Z,26.67
2017-08-29T07:20:23.000Z,27.11
2017-08-29T07:21:23.002Z,27.6
2017-08-29T07:22:22.671Z,27.84
2017-08-29T07:23:22.393Z,27
2017-08-29T07:24:22.983Z,26.67
2017-08-29T07:25:22.671Z,26.74
2017-08-29T07:26:23.182Z,26.96
2017-08-29T07:27:22.641Z,27.22
2017-08-29T07:28:22.711Z,27.34
2017-08-29T07:29:22.942Z,27.57
2017-08-29T07:30:22.989Z,27.59
2017-08-29T07:31:22.940Z,27
2017-08-29T07:32:22.603Z,26.56
2017-08-29T07:33:22.599Z,26.69
2017-08-29T07:34:22.293Z,27.12
2017-08-29T07:35:22.907Z,27.46
2017-08-29T07:36:22.596Z,27.59
2017-08-29T07:37:22.577Z,27.34
2017-08-29T07:38:22.880Z,27.48
2017-08-29T07:39:22.572Z,27.72
2017-08-29T07:40:22.875Z,27.91
2017-08-29T07:41:22.550Z,28.05
2017-08-29T07:42:22.322Z,27.88
2017-08-29T07:43:22.241Z,27.91
2017-08-29T07:44:22.862Z,28.01
2017-08-29T07:45:22.541Z,28.1
2017-08-29T07:46:22.609Z,28.13
2017-08-29T07:47:22.862Z,28.47
2017-08-29T07:48:22.852Z,27.41
2017-08-29T07:49:22.208Z,27.16
2017-08-29T07:50:22.952Z,27.72
2017-08-29T07:51:22.828Z,28.3
2017-08-29T07:52:22.621Z,28.86
2017-08-29T07:53:22.572Z,28.53
2017-08-29T07:54:22.610Z,28.34
2017-08-29T07:55:22.815Z,28.68
2017-08-29T07:56:22.905Z,28.31
2017-08-29T07:57:22.500Z,28.52
2017-08-29T07:58:22.564Z,29.21
2017-08-29T07:59:22.820Z,29.59
2017-08-29T08:00:22.499Z,29.62
2017-08-29T08:01:22.491Z,29.47
2017-08-29T08:02:22.889Z,29.25
2017-08-29T08:03:22.184Z,29.24
2017-08-29T08:04:22.487Z,29.4
2017-08-29T08:05:22.489Z,29.59
2017-08-29T08:06:22.789Z,28.93
2017-08-29T08:07:22.790Z,29.22
2017-08-29T08:08:22.792Z,29.76
2017-08-29T08:09:22.795Z,30.17
2017-08-29T08:10:22.778Z,30.66
2017-08-29T08:11:22.472Z,31.19
2017-08-29T08:12:22.794Z,30.93
2017-08-29T08:13:22.772Z,30.71
2017-08-29T08:14:22.774Z,31.08
2017-08-29T08:15:22.775Z,30.89
2017-08-29T08:16:22.779Z,31.04
2017-08-29T08:17:22.147Z,31.49
2017-08-29T08:18:22.798Z,31.89
2017-08-29T08:19:22.768Z,31.74
2017-08-29T08:20:22.764Z,31.76
2017-08-29T08:21:22.149Z,32.01
2017-08-29T08:22:22.780Z,32.29
2017-08-29T08:23:22.858Z,32.51
2017-08-29T08:24:22.769Z,32.58
2017-08-29T08:25:22.768Z,32.78
2017-08-29T08:26:22.508Z,32.72
2017-08-29T08:27:22.801Z,32.6
2017-08-29T08:28:22.820Z,32.88
2017-08-29T08:29:22.449Z,32.88
2017-08-29T08:30:22.129Z,32.82
2017-08-29T08:31:22.757Z,31.98
2017-08-29T08:32:22.754Z,31.54
2017-08-29T08:33:22.450Z,31.6
2017-08-29T08:34:22.763Z,31.69
2017-08-29T08:35:22.754Z,32.09
2017-08-29T08:36:22.768Z,32.51
2017-08-29T08:37:22.447Z,32.84
2017-08-29T08:38:22.759Z,32.04
2017-08-29T08:39:22.758Z,31.76
2017-08-29T08:40:22.749Z,32.01
2017-08-29T08:41:22.549Z,32.17
2017-08-29T08:42:22.439Z,32.29
2017-08-29T08:43:22.449Z,32.23
2017-08-29T08:44:22.449Z,32.29
2017-08-29T08:45:22.141Z,32.34
2017-08-29T08:46:22.924Z,32.61
2017-08-29T08:47:22.768Z,31.92
2017-08-29T08:48:22.512Z,31.98
2017-08-29T08:49:22.769Z,32.36
2017-08-29T08:50:22.456Z,32.04
2017-08-29T08:51:22.459Z,32.35
2017-08-29T08:52:22.776Z,32.5
2017-08-29T08:53:22.459Z,32.54
2017-08-29T08:54:22.756Z,32.01
2017-08-29T08:55:22.780Z,32.43
2017-08-29T08:56:22.779Z,32.8
2017-08-29T08:57:22.805Z,32.2
2017-08-29T08:58:22.468Z,32.51
2017-08-29T08:59:22.478Z,32.98
2017-08-29T09:00:22.146Z,33.37
2017-08-29T09:01:22.764Z,33.74
2017-08-29T09:02:22.774Z,33.92
2017-08-29T09:03:22.775Z,34.1
2017-08-29T09:04:22.523Z,34.07
2017-08-29T09:05:22.806Z,33.84
2017-08-29T09:06:22.798Z,34.16
2017-08-29T09:07:22.799Z,33.97
2017-08-29T09:08:22.797Z,34.33
2017-08-29T09:09:22.596Z,33.99
2017-08-29T09:10:22.910Z,33.88
2017-08-29T09:11:22.871Z,34.13
2017-08-29T09:12:22.799Z,34.29
2017-08-29T09:13:22.559Z,34.26
2017-08-29T09:14:22.497Z,34.26
2017-08-29T09:15:22.537Z,34.21
2017-08-29T09:16:22.820Z,34.4
2017-08-29T09:17:22.510Z,34.62
2017-08-29T09:18:22.830Z,34.48
2017-08-29T09:19:22.529Z,34.72
2017-08-29T09:20:22.849Z,34.86
2017-08-29T09:21:22.527Z,34.57
2017-08-29T09:22:22.529Z,34.4
2017-08-29T09:23:22.514Z,33.76
2017-08-29T09:24:22.844Z,33.86
2017-08-29T09:25:22.577Z,33.64
2017-08-29T09:26:22.861Z,33.88
2017-08-29T09:27:22.860Z,34.16
2017-08-29T09:28:22.844Z,34.63
2017-08-29T09:29:22.974Z,34.6
2017-08-29T09:30:22.861Z,34.86
2017-08-29T09:31:22.925Z,35.1
2017-08-29T09:32:22.630Z,34.7
2017-08-29T09:33:22.636Z,34.92
2017-08-29T09:34:22.935Z,34.13
2017-08-29T09:35:22.873Z,34.28
2017-08-29T09:36:22.579Z,33.73
2017-08-29T09:37:22.606Z,32.95
2017-08-29T09:38:22.906Z,33.33
2017-08-29T09:39:22.908Z,33.82
2017-08-29T09:40:22.601Z,33.81
2017-08-29T09:41:22.921Z,34.03
2017-08-29T09:42:22.629Z,34.16
2017-08-29T09:43:22.907Z,34.21
2017-08-29T09:44:22.920Z,34.57
2017-08-29T09:45:22.598Z,34.9
2017-08-29T09:46:22.910Z,34.85
2017-08-29T09:47:22.612Z,34.37
2017-08-29T09:48:22.655Z,34.73
2017-08-29T09:49:22.925Z,35
2017-08-29T09:50:22.605Z,35.29
2017-08-29T09:51:22.957Z,35.25
2017-08-29T09:52:22.630Z,35.02
2017-08-29T09:53:23.032Z,35
2017-08-29T09:54:22.979Z,35.14
2017-08-29T09:55:23.013Z,35.32
2017-08-29T09:56:22.633Z,35.58
2017-08-29T09:57:22.739Z,35.85
2017-08-29T09:58:23.048Z,35.81
2017-08-29T09:59:22.628Z,35.92
2017-08-29T10:00:22.623Z,35.16
2017-08-29T10:01:22.937Z,34.16
2017-08-29T10:02:22.992Z,33.55
2017-08-29T10:03:22.956Z,33.92
2017-08-29T10:04:23.168Z,34.01
2017-08-29T10:05:22.952Z,33.89
2017-08-29T10:06:22.638Z,34.1
2017-08-29T10:07:22.957Z,34.28
2017-08-29T10:08:22.634Z,34.62
2017-08-29T10:09:22.637Z,35.13
2017-08-29T10:10:22.949Z,34.91
2017-08-29T10:11:22.948Z,35.12
2017-08-29T10:12:22.953Z,35.09
2017-08-29T10:13:23.131Z,34.72
2017-08-29T10:14:22.969Z,34.75
2017-08-29T10:15:22.730Z,35.02
2017-08-29T10:16:22.973Z,35.35
2017-08-29T10:17:23.504Z,35.36
2017-08-29T10:18:22.978Z,35.32
2017-08-29T10:19:22.628Z,35.46
2017-08-29T10:20:22.637Z,35.36
2017-08-29T10:21:22.997Z,35.39
2017-08-29T10:22:22.468Z,35.58
2017-08-29T10:23:22.980Z,35.76
2017-08-29T10:24:22.697Z,35.92
2017-08-29T10:25:23.061Z,36.06
2017-08-29T10:26:22.945Z,35.53
2017-08-29T10:27:22.617Z,35.13
2017-08-29T10:28:22.954Z,35.2
2017-08-29T10:29:22.627Z,35.14
2017-08-29T10:30:22.956Z,34.7
2017-08-29T10:31:22.930Z,34.82
2017-08-29T10:32:22.922Z,34.94
2017-08-29T10:33:22.931Z,34.88
2017-08-29T10:34:22.930Z,34.19
2017-08-29T10:35:22.926Z,33.88
2017-08-29T10:36:22.927Z,34.44
2017-08-29T10:37:22.924Z,33.37
2017-08-29T10:38:22.908Z,33.26
2017-08-29T10:39:22.899Z,33.21
2017-08-29T10:40:22.898Z,33.74
2017-08-29T10:41:22.900Z,33.37
2017-08-29T10:42:22.893Z,33.88
2017-08-29T10:43:23.047Z,34.55
2017-08-29T10:44:23.009Z,34.97
2017-08-29T10:45:22.717Z,35.09
2017-08-29T10:46:22.270Z,35.13
2017-08-29T10:47:22.896Z,35.32
2017-08-29T10:48:22.900Z,35.6
2017-08-29T10:49:22.352Z,35.81
2017-08-29T10:50:22.925Z,35.95
2017-08-29T10:51:22.558Z,36.13
2017-08-29T10:52:22.569Z,35.99
2017-08-29T10:53:22.867Z,34.13
2017-08-29T10:54:22.537Z,34.38
2017-08-29T10:55:22.546Z,34.97
2017-08-29T10:56:22.535Z,35.41
2017-08-29T10:57:22.846Z,35.6
2017-08-29T10:58:22.537Z,35.85
2017-08-29T10:59:22.841Z,35.81
2017-08-29T11:00:22.892Z,35.27
2017-08-29T11:01:22.527Z,35.42
2017-08-29T11:02:22.527Z,35.7
2017-08-29T11:03:22.824Z,35.69
2017-08-29T11:04:22.853Z,35.58
2017-08-29T11:05:22.830Z,35.78
2017-08-29T11:06:22.823Z,35.83
2017-08-29T11:07:22.806Z,36.13
2017-08-29T11:08:22.828Z,36.22
2017-08-29T11:09:22.507Z,35.95
2017-08-29T11:10:22.800Z,36.03
2017-08-29T11:11:22.799Z,36.26
2017-08-29T11:12:22.505Z,36.45
2017-08-29T11:13:22.807Z,36.56
2017-08-29T11:14:22.498Z,36.51
2017-08-29T11:15:22.631Z,36.49
2017-08-29T11:16:22.477Z,36.6
2017-08-29T11:17:22.477Z,36.75
2017-08-29T11:18:22.818Z,36.42
2017-08-29T11:19:22.167Z,36.38
2017-08-29T11:20:22.473Z,36.2
2017-08-29T11:21:22.468Z,36.25
2017-08-29T11:22:22.778Z,36.25
2017-08-29T11:23:22.768Z,36.15
2017-08-29T11:24:22.768Z,35.41
2017-08-29T11:25:22.471Z,35.63
2017-08-29T11:26:22.781Z,36.03
2017-08-29T11:27:23.036Z,35.72
2017-08-29T11:28:22.467Z,35.76
2017-08-29T11:29:22.778Z,35.62
2017-08-29T11:30:22.432Z,35.56
2017-08-29T11:31:22.757Z,35.92
2017-08-29T11:32:22.426Z,35.62
2017-08-29T11:33:22.748Z,35.72
2017-08-29T11:34:22.737Z,35.88
2017-08-29T11:35:22.731Z,35.85
2017-08-29T11:36:22.745Z,35.53
2017-08-29T11:37:22.724Z,35.63
2017-08-29T11:38:22.721Z,35.46
2017-08-29T11:39:22.413Z,35.62
2017-08-29T11:40:22.736Z,34.88
2017-08-29T11:41:22.719Z,34.25
2017-08-29T11:42:22.719Z,34.34
2017-08-29T11:43:22.417Z,34.21
2017-08-29T11:44:22.846Z,34.47
2017-08-29T11:45:22.085Z,34.48
2017-08-29T11:46:22.086Z,34.56
2017-08-29T11:47:22.403Z,34.04
2017-08-29T11:48:22.786Z,33.72
2017-08-29T11:49:22.076Z,33.51
2017-08-29T11:50:22.704Z,33.7
2017-08-29T11:51:22.697Z,33.64
2017-08-29T11:52:22.703Z,33.52
2017-08-29T11:53:22.678Z,33.81
2017-08-29T11:54:22.687Z,34
2017-08-29T11:55:22.705Z,34.07
2017-08-29T11:56:22.369Z,34.35
2017-08-29T11:57:22.727Z,33.78
2017-08-29T11:58:22.368Z,33.26
2017-08-29T11:59:22.666Z,33.78
2017-08-29T12:00:22.657Z,34.44
2017-08-29T12:01:22.025Z,34.66
2017-08-29T12:02:22.658Z,35.07
2017-08-29T12:03:22.340Z,35.28
2017-08-29T12:04:22.326Z,35.27
2017-08-29T12:05:22.643Z,35.35
2017-08-29T12:06:22.644Z,35.29
2017-08-29T12:07:22.646Z,35.29
2017-08-29T12:08:22.315Z,35.39
2017-08-29T12:09:22.369Z,35.7
2017-08-29T12:10:22.317Z,35.85
2017-08-29T12:11:22.356Z,36.19
2017-08-29T12:12:22.296Z,35.88
2017-08-29T12:13:22.604Z,36.06
2017-08-29T12:14:22.617Z,36.2
2017-08-29T12:15:22.710Z,36.45
2017-08-29T12:16:22.288Z,36.47
2017-08-29T12:17:22.348Z,36.59
2017-08-29T12:18:22.745Z,36.71
2017-08-29T12:19:22.608Z,36.85
2017-08-29T12:20:21.963Z,36.89
2017-08-29T12:21:22.599Z,36.57
2017-08-29T12:22:22.274Z,35.76
2017-08-29T12:23:22.580Z,35.6
2017-08-29T12:24:21.955Z,35.7
2017-08-29T12:25:22.276Z,36.04
2017-08-29T12:26:22.266Z,36.19
2017-08-29T12:27:22.565Z,36.51
2017-08-29T12:28:22.588Z,36.42
2017-08-29T12:29:22.557Z,36.54
2017-08-29T12:30:22.569Z,36.3
2017-08-29T12:31:22.576Z,36.29
2017-08-29T12:32:22.557Z,35.85
2017-08-29T12:33:22.567Z,34.98
2017-08-29T12:34:22.366Z,34.98
2017-08-29T12:35:22.576Z,34.21
2017-08-29T12:36:21.915Z,33.51
2017-08-29T12:37:22.228Z,33.41
2017-08-29T12:38:22.223Z,33.35
2017-08-29T12:39:22.538Z,33.67
2017-08-29T12:40:22.523Z,34.15
2017-08-29T12:41:22.216Z,34.26
2017-08-29T12:42:22.517Z,34.45
2017-08-29T12:43:22.516Z,34.8
2017-08-29T12:44:22.535Z,35.04
2017-08-29T12:45:22.518Z,34.18
2017-08-29T12:46:22.504Z,33.92
2017-08-29T12:47:22.195Z,33.28
2017-08-29T12:48:22.178Z,32.82
2017-08-29T12:49:22.190Z,33.07
2017-08-29T12:50:21.868Z,33.62
2017-08-29T12:51:22.488Z,34.22
2017-08-29T12:52:22.498Z,34.06
2017-08-29T12:53:22.496Z,34.16
2017-08-29T12:54:22.473Z,34.45
2017-08-29T12:55:22.159Z,34.86
2017-08-29T12:56:22.469Z,35.09